createdAt,value
2023-04-22T00:00:29.837Z,8.09
2023-04-22T00:04:32.592Z,8.01
2023-04-22T00:08:35.509Z,7.93
2023-04-22T00:12:38.282Z,7.93
2023-04-22T00:16:42.425Z,7.93
2023-04-22T00:20:46.158Z,7.69
2023-04-22T00:24:48.778Z,7.78
2023-04-22T00:28:51.427Z,7.57
2023-04-22T00:32:56.080Z,7.43
2023-04-22T00:36:58.790Z,7.50
2023-04-22T00:41:01.496Z,7.69
2023-04-22T00:45:04.334Z,7.74
2023-04-22T00:54:30.451Z,7.72
2023-04-22T00:58:33.301Z,7.33
2023-04-22T01:02:35.995Z,7.46
2023-04-22T01:06:39.064Z,7.30
2023-04-22T01:10:43.554Z,7.26
2023-04-22T01:14:46.199Z,7.32
2023-04-22T01:18:48.840Z,7.47
2023-04-22T01:22:51.887Z,7.09
2023-04-22T01:26:55.877Z,7.11
2023-04-22T01:30:58.335Z,7.29
2023-04-22T01:35:00.980Z,6.82
2023-04-22T01:39:03.696Z,6.85
2023-04-22T01:43:07.897Z,6.96
2023-04-22T01:47:10.533Z,7.13
2023-04-22T01:51:13.199Z,6.72
2023-04-22T01:55:16.058Z,6.39
2023-04-22T01:59:20.346Z,6.45
2023-04-22T02:03:23.093Z,6.77
2023-04-22T02:07:25.877Z,6.38
2023-04-22T02:11:28.478Z,6.27
2023-04-22T02:15:32.534Z,5.95
2023-04-22T02:19:35.394Z,5.99
2023-04-22T02:23:38.473Z,5.98
2023-04-22T02:27:41.442Z,5.78
2023-04-22T02:31:45.544Z,5.59
2023-04-22T02:35:48.018Z,5.52
2023-04-22T02:39:50.759Z,5.63
2023-04-22T02:43:53.406Z,5.73
2023-04-22T02:47:57.457Z,5.68
2023-04-22T02:51:59.979Z,5.74
2023-04-22T02:56:02.607Z,5.41
2023-04-22T03:00:06.228Z,5.23
2023-04-22T03:04:10.376Z,5.04
2023-04-22T03:08:13.153Z,5.09
2023-04-22T03:12:15.763Z,5.34
2023-04-22T03:16:18.541Z,5.51
2023-04-22T03:20:23.330Z,5.31
2023-04-22T03:24:26.279Z,5.46
2023-04-22T03:28:28.916Z,4.79
2023-04-22T03:32:31.619Z,5.16
2023-04-22T03:36:35.661Z,5.33
2023-04-22T03:40:38.282Z,5.25
2023-04-22T03:44:41.023Z,5.26
2023-04-22T03:48:43.655Z,4.48
2023-04-22T03:52:47.722Z,4.73
2023-04-22T03:56:50.361Z,5.24
2023-04-22T04:00:53.079Z,5.34
2023-04-22T04:04:56.150Z,4.91
2023-04-22T04:09:01.770Z,5.40
2023-04-22T04:13:04.432Z,4.91
2023-04-22T04:17:09.522Z,4.97
2023-04-22T04:21:12.154Z,5.09
2023-04-22T04:25:16.153Z,5.29
2023-04-22T04:29:21.548Z,5.04
2023-04-22T04:33:24.251Z,5.06
2023-04-22T04:37:27.175Z,4.91
2023-04-22T04:41:31.815Z,4.96
2023-04-22T04:45:36.454Z,4.22
2023-04-22T04:49:40.609Z,4.79
2023-04-22T04:53:43.592Z,4.59
2023-04-22T04:57:47.889Z,4.73
2023-04-22T05:01:50.653Z,4.87
2023-04-22T05:05:53.410Z,5.43
2023-04-22T05:09:56.047Z,6.04
2023-04-22T05:14:00.021Z,5.30
2023-04-22T05:18:02.743Z,6.76
2023-04-22T05:22:05.447Z,6.68
2023-04-22T05:26:08.124Z,6.51
2023-04-22T05:30:12.638Z,7.40
2023-04-22T05:34:15.319Z,11.08
2023-04-22T05:38:18.054Z,11.39
2023-04-22T05:42:20.665Z,10.42
2023-04-22T05:46:24.864Z,8.65
2023-04-22T05:50:27.546Z,7.72
2023-04-22T05:54:30.549Z,8.47
2023-04-22T05:58:33.233Z,7.84
2023-04-22T06:02:37.279Z,7.70
2023-04-22T06:06:40.079Z,8.65
2023-04-22T06:10:45.757Z,10.65
2023-04-22T06:14:48.674Z,12.84
2023-04-22T06:18:52.703Z,11.75
2023-04-22T06:22:55.397Z,13.95
2023-04-22T06:26:58.374Z,14.64
2023-04-22T06:31:01.089Z,15.24
2023-04-22T06:35:05.755Z,14.25
2023-04-22T06:39:10.943Z,15.11
2023-04-22T06:43:13.873Z,15.32
2023-04-22T06:47:17.143Z,15.88
2023-04-22T06:51:21.176Z,16.69
2023-04-22T06:55:23.793Z,16.88
2023-04-22T06:59:26.473Z,17.64
2023-04-22T07:03:29.314Z,17.01
2023-04-22T07:07:33.614Z,16.10
2023-04-22T07:11:36.257Z,16.44
2023-04-22T07:15:38.946Z,15.84
2023-04-22T07:19:41.836Z,15.89
2023-04-22T07:23:45.979Z,16.08
2023-04-22T07:27:48.623Z,16.04
2023-04-22T07:31:51.386Z,15.72
2023-04-22T07:35:54.001Z,15.95
2023-04-22T07:39:58.011Z,15.93
2023-04-22T07:44:01.268Z,16.15
2023-04-22T07:48:04.170Z,16.29
2023-04-22T07:52:06.831Z,16.28
2023-04-22T07:56:10.853Z,16.95
2023-04-22T08:00:15.351Z,17.06
2023-04-22T08:04:18.757Z,17.15
2023-04-22T08:08:21.499Z,17.56
2023-04-22T08:12:25.610Z,17.64
2023-04-22T08:16:28.355Z,17.73
2023-04-22T08:20:31.107Z,17.79
2023-04-22T08:24:33.937Z,18.33
2023-04-22T08:28:38.512Z,17.96
2023-04-22T08:32:41.345Z,16.84
2023-04-22T08:36:44.099Z,16.47
2023-04-22T08:40:47.448Z,16.20
2023-04-22T08:44:52.086Z,17.56
2023-04-22T08:48:55.513Z,18.16
2023-04-22T08:52:58.195Z,18.61
2023-04-22T08:57:01.334Z,18.48
2023-04-22T09:01:06.209Z,18.88
2023-04-22T09:05:11.225Z,19.10
2023-04-22T09:09:13.973Z,18.94
2023-04-22T09:13:16.458Z,19.42
2023-04-22T09:17:31.397Z,20.20
2023-04-22T09:21:34.554Z,20.38
2023-04-22T09:25:39.611Z,20.07
2023-04-22T09:29:49.015Z,20.70
2023-04-22T09:33:55.157Z,21.11
2023-04-22T09:37:58.510Z,20.06
2023-04-22T09:42:01.164Z,19.34
2023-04-22T09:46:03.686Z,18.81
2023-04-22T09:50:09.226Z,18.82
2023-04-22T09:54:12.652Z,18.77
2023-04-22T09:58:17.379Z,18.74
2023-04-22T10:02:20.418Z,18.90
2023-04-22T10:06:24.857Z,18.36
2023-04-22T10:10:27.490Z,18.44
2023-04-22T10:14:30.114Z,18.21
2023-04-22T10:18:33.930Z,18.13
2023-04-22T10:22:38.034Z,18.03
2023-04-22T10:26:42.308Z,18.07
2023-04-22T10:30:45.271Z,18.24
2023-04-22T10:34:48.809Z,18.12
2023-04-22T10:39:18.460Z,17.52
2023-04-22T10:43:21.356Z,17.10
2023-04-22T10:47:28.865Z,16.80
2023-04-22T10:51:40.802Z,16.78
2023-04-22T10:55:52.580Z,16.82
2023-04-22T11:00:00.387Z,16.70
2023-04-22T11:04:22.947Z,16.47
2023-04-22T11:08:29.105Z,16.30
2023-04-22T11:12:45.905Z,16.12
2023-04-22T11:16:48.707Z,16.05
2023-04-22T11:20:53.609Z,16.00
2023-04-22T11:24:56.315Z,15.96
2023-04-22T11:29:02.149Z,15.69
2023-04-22T11:33:05.016Z,15.59
2023-04-22T11:37:07.637Z,15.60
2023-04-22T11:41:10.656Z,15.68
2023-04-22T11:45:15.013Z,15.77
2023-04-22T11:49:18.278Z,15.78
2023-04-22T11:53:24.029Z,15.91
2023-04-22T11:57:26.864Z,16.15
2023-04-22T12:01:31.203Z,16.41
2023-04-22T12:05:35.826Z,16.84
2023-04-22T12:09:40.659Z,17.01
2023-04-22T12:13:45.554Z,16.93
2023-04-22T12:17:51.311Z,17.48
2023-04-22T12:21:56.484Z,17.33
2023-04-22T12:25:59.176Z,16.99
2023-04-22T12:30:01.910Z,16.33
2023-04-22T12:34:06.249Z,16.07
2023-04-22T12:38:08.967Z,15.71
2023-04-22T12:42:11.907Z,15.53
2023-04-22T12:46:14.664Z,15.55
2023-04-22T12:50:18.749Z,15.57
2023-04-22T12:54:22.043Z,15.77
2023-04-22T12:58:25.389Z,16.11
2023-04-22T13:02:28.510Z,16.26
2023-04-22T13:06:33.500Z,16.71
2023-04-22T13:10:36.502Z,16.57
2023-04-22T13:14:39.316Z,16.67
2023-04-22T13:18:41.934Z,16.60
2023-04-22T13:22:46.409Z,17.02
2023-04-22T13:26:49.264Z,17.05
2023-04-22T13:30:51.942Z,17.12
2023-04-22T13:34:54.644Z,17.18
2023-04-22T13:38:58.678Z,17.42
2023-04-22T13:43:01.738Z,17.41
2023-04-22T13:47:04.419Z,17.60
2023-04-22T13:51:07.156Z,17.30
2023-04-22T13:55:12.019Z,17.05
2023-04-22T13:59:14.701Z,17.05
2023-04-22T14:03:17.667Z,17.35
2023-04-22T14:07:20.426Z,17.81
2023-04-22T14:11:24.604Z,18.07
2023-04-22T14:15:27.356Z,18.11
2023-04-22T14:19:30.629Z,17.87
2023-04-22T14:23:33.478Z,17.78
2023-04-22T14:27:37.506Z,17.58
2023-04-22T14:31:40.341Z,17.36
2023-04-22T14:35:42.991Z,17.05
2023-04-22T14:39:45.708Z,16.81
2023-04-22T14:43:50.886Z,16.63
2023-04-22T14:47:53.756Z,16.66
2023-04-22T14:51:56.926Z,16.48
2023-04-22T14:55:59.599Z,16.42
2023-04-22T15:00:03.622Z,16.46
2023-04-22T15:04:07.959Z,16.31
2023-04-22T15:08:10.755Z,16.32
2023-04-22T15:12:13.492Z,16.13
2023-04-22T15:16:17.576Z,16.13
2023-04-22T15:20:20.443Z,15.53
2023-04-22T15:24:23.883Z,14.86
2023-04-22T15:28:26.888Z,14.78
2023-04-22T15:32:31.051Z,14.64
2023-04-22T15:36:34.093Z,14.46
2023-04-22T15:40:36.805Z,14.18
2023-04-22T15:44:39.414Z,14.20
2023-04-22T15:48:47.112Z,14.15
2023-04-22T15:52:49.924Z,14.21
2023-04-22T15:56:52.554Z,13.88
2023-04-22T16:00:59.588Z,13.89
2023-04-22T16:05:09.115Z,13.80
2023-04-22T16:09:11.897Z,13.76
2023-04-22T16:13:14.554Z,13.80
2023-04-22T16:17:17.518Z,13.71
2023-04-22T16:21:21.546Z,13.72
2023-04-22T16:25:24.220Z,13.48
2023-04-22T16:29:26.835Z,13.89
2023-04-22T16:33:29.978Z,13.48
2023-04-22T16:37:34.130Z,13.69
2023-04-22T16:41:36.875Z,13.43
2023-04-22T16:45:39.547Z,13.59
2023-04-22T16:49:42.487Z,13.50
2023-04-22T16:53:46.711Z,13.38
2023-04-22T16:57:50.718Z,13.20
2023-04-22T17:01:53.531Z,13.17
2023-04-22T17:05:57.364Z,12.80
2023-04-22T17:10:01.432Z,12.67
2023-04-22T17:14:04.263Z,13.17
2023-04-22T17:18:07.942Z,12.94
2023-04-22T17:22:10.811Z,13.03
2023-04-22T17:26:15.116Z,12.98
2023-04-22T17:30:18.175Z,12.78
2023-04-22T17:34:21.339Z,13.10
2023-04-22T17:38:24.333Z,13.11
2023-04-22T17:42:38.868Z,13.07
2023-04-22T17:46:48.016Z,13.09
2023-04-22T17:50:50.730Z,13.08
2023-04-22T17:54:56.163Z,12.94
2023-04-22T17:59:01.401Z,12.98
2023-04-22T18:03:05.606Z,12.72
2023-04-22T18:07:08.743Z,12.86
2023-04-22T18:11:11.632Z,12.88
2023-04-22T18:15:15.731Z,12.88
2023-04-22T18:19:18.625Z,12.70
2023-04-22T18:23:21.385Z,12.77
2023-04-22T18:27:24.031Z,12.73
2023-04-22T18:31:28.470Z,12.75
2023-04-22T18:35:31.463Z,12.67
2023-04-22T18:39:34.317Z,12.64
2023-04-22T18:43:37.088Z,12.53
2023-04-22T18:47:41.770Z,12.43
2023-04-22T18:51:46.739Z,12.39
2023-04-22T18:55:49.586Z,12.44
2023-04-22T18:59:52.504Z,12.24
2023-04-22T19:03:56.876Z,12.37
2023-04-22T19:07:59.883Z,12.20
2023-04-22T19:12:02.707Z,12.17
2023-04-22T19:16:05.646Z,12.02
2023-04-22T19:20:12.488Z,12.07
2023-04-22T19:24:18.265Z,11.95
2023-04-22T19:28:21.427Z,12.12
2023-04-22T19:32:24.436Z,11.94
2023-04-22T19:36:28.549Z,11.99
2023-04-22T19:40:31.657Z,11.77
2023-04-22T19:44:34.492Z,11.82
2023-04-22T19:48:37.854Z,11.89
2023-04-22T19:52:43.288Z,11.76
2023-04-22T19:56:46.242Z,11.69
2023-04-22T20:00:49.687Z,11.55
2023-04-22T20:04:53.725Z,11.64
2023-04-22T20:08:58.952Z,11.64
2023-04-22T20:13:03.785Z,11.47
2023-04-22T20:17:07.330Z,11.48
2023-04-22T20:21:10.109Z,11.39
2023-04-22T20:25:16.004Z,11.49
2023-04-22T20:29:19.145Z,11.45
2023-04-22T20:33:22.808Z,11.39
2023-04-22T20:37:27.208Z,11.26
2023-04-22T20:41:32.255Z,10.91
2023-04-22T20:45:35.161Z,11.31
2023-04-22T20:49:40.605Z,10.92
2023-04-22T20:53:44.145Z,11.25
2023-04-22T20:57:48.635Z,11.34
2023-04-22T21:01:51.504Z,11.38
2023-04-22T21:05:54.857Z,11.24
2023-04-22T21:09:58.186Z,11.04
2023-04-22T21:14:03.433Z,11.20
2023-04-22T21:18:08.233Z,10.92
2023-04-22T21:22:11.526Z,11.00
2023-04-22T21:26:16.184Z,11.13
2023-04-22T21:30:22.386Z,11.13
2023-04-22T21:34:25.164Z,11.16
2023-04-22T21:38:28.018Z,11.20
2023-04-22T21:42:30.931Z,11.19
2023-04-22T21:46:35.083Z,11.12
2023-04-22T21:50:37.814Z,11.04
2023-04-22T21:54:41.278Z,11.04
2023-04-22T21:58:44.119Z,11.12
2023-04-22T22:02:48.734Z,11.08
2023-04-22T22:06:51.566Z,10.82
2023-04-22T22:10:54.195Z,11.11
2023-04-22T22:14:56.877Z,10.87
2023-04-22T22:19:04.495Z,11.13
2023-04-22T22:23:07.420Z,10.89
2023-04-22T22:27:10.791Z,11.13
2023-04-22T22:31:13.499Z,11.18
2023-04-22T22:35:17.455Z,11.22
2023-04-22T22:39:20.143Z,11.27
2023-04-22T22:43:22.780Z,11.06
2023-04-22T22:47:25.941Z,11.06
2023-04-22T22:51:30.558Z,11.03
2023-04-22T22:55:33.985Z,11.14
2023-04-22T22:59:37.460Z,11.08
2023-04-22T23:03:40.356Z,11.03
2023-04-22T23:07:44.633Z,11.05
2023-04-22T23:11:49.162Z,11.00
2023-04-22T23:15:51.817Z,10.98
2023-04-22T23:19:55.850Z,10.98
2023-04-22T23:24:01.257Z,10.86
2023-04-22T23:28:04.565Z,10.81
2023-04-22T23:32:09.107Z,10.72
2023-04-22T23:36:14.045Z,10.75
2023-04-22T23:40:18.440Z,11.10
2023-04-22T23:44:21.355Z,10.94
2023-04-22T23:48:24.008Z,10.97
2023-04-22T23:52:26.636Z,10.89
2023-04-22T23:56:31.497Z,10.93
